Terminal Aerodrome Forecast
Issued by NWS

Home | Current Version | Previous Version | Text Only | Print | Product List | Glossary On
Versions: 1 2 3 4 5 6 7 8 9 10 11 12 13 14 15
000
FTAK31 PAJN 190200 AAA
TAFASI
TAF AMD
PASI 190233Z 1903/1924 16014G22KT P6SM -SHRA SCT020 OVC035
     FM190800 18028G38KT 4SM RA BR BKN015 OVC025 WS020/20050KT
     FM191500 21018G28KT P6SM -SHRA SCT020 OVC030
     FM192100 21012KT P6SM -SHRA SCT020 OVC030=

USA.gov is the U.S. government's official web portal to all federal, state and local government web resources and services.